sensor_id;sensor_type;location;lat;lon;timestamp;P1;durP1;ratioP1;P2;durP2;ratioP2
24663;SDS011;12791;50.992;13.788;2023-12-20T00:01:32;2.20;;;1.65;;
24663;SDS011;12791;50.992;13.788;2023-12-20T00:03:59;1.52;;;1.42;;
24663;SDS011;12791;50.992;13.788;2023-12-20T00:06:26;1.58;;;1.48;;
24663;SDS011;12791;50.992;13.788;2023-12-20T00:08:52;1.35;;;1.30;;
24663;SDS011;12791;50.992;13.788;2023-12-20T00:11:20;1.40;;;1.30;;
24663;SDS011;12791;50.992;13.788;2023-12-20T00:13:47;1.98;;;1.83;;
24663;SDS011;12791;50.992;13.788;2023-12-20T00:16:13;1.60;;;1.50;;
24663;SDS011;12791;50.992;13.788;2023-12-20T00:18:40;1.80;;;1.70;;
24663;SDS011;12791;50.992;13.788;2023-12-20T00:21:06;1.60;;;1.50;;
24663;SDS011;12791;50.992;13.788;2023-12-20T00:23:33;1.50;;;1.40;;
24663;SDS011;12791;50.992;13.788;2023-12-20T00:25:59;1.77;;;1.42;;
24663;SDS011;12791;50.992;13.788;2023-12-20T00:28:27;1.30;;;1.20;;
24663;SDS011;12791;50.992;13.788;2023-12-20T00:30:54;1.15;;;1.10;;
24663;SDS011;12791;50.992;13.788;2023-12-20T00:33:20;1.50;;;1.40;;
24663;SDS011;12791;50.992;13.788;2023-12-20T00:35:47;1.55;;;1.45;;
24663;SDS011;12791;50.992;13.788;2023-12-20T00:38:14;1.52;;;1.42;;
24663;SDS011;12791;50.992;13.788;2023-12-20T00:40:40;1.80;;;1.70;;
24663;SDS011;12791;50.992;13.788;2023-12-20T00:43:07;1.40;;;1.30;;
24663;SDS011;12791;50.992;13.788;2023-12-20T00:45:35;1.48;;;1.38;;
24663;SDS011;12791;50.992;13.788;2023-12-20T00:48:01;1.73;;;1.17;;
24663;SDS011;12791;50.992;13.788;2023-12-20T00:50:28;1.42;;;1.27;;
24663;SDS011;12791;50.992;13.788;2023-12-20T00:52:55;1.30;;;1.20;;
24663;SDS011;12791;50.992;13.788;2023-12-20T00:55:22;1.30;;;1.20;;
24663;SDS011;12791;50.992;13.788;2023-12-20T00:57:48;1.20;;;1.10;;
24663;SDS011;12791;50.992;13.788;2023-12-20T01:00:15;1.08;;;1.02;;
24663;SDS011;12791;50.992;13.788;2023-12-20T01:02:43;1.50;;;1.10;;
24663;SDS011;12791;50.992;13.788;2023-12-20T01:05:11;1.00;;;1.00;;
24663;SDS011;12791;50.992;13.788;2023-12-20T01:07:38;1.00;;;1.00;;
24663;SDS011;12791;50.992;13.788;2023-12-20T01:10:05;1.08;;;0.98;;
24663;SDS011;12791;50.992;13.788;2023-12-20T01:12:32;0.70;;;0.70;;
24663;SDS011;12791;50.992;13.788;2023-12-20T01:14:58;0.80;;;0.80;;
24663;SDS011;12791;50.992;13.788;2023-12-20T01:17:25;1.80;;;0.85;;
24663;SDS011;12791;50.992;13.788;2023-12-20T01:19:53;0.65;;;0.65;;
24663;SDS011;12791;50.992;13.788;2023-12-20T01:22:19;0.75;;;0.75;;
24663;SDS011;12791;50.992;13.788;2023-12-20T01:24:46;0.77;;;0.77;;
24663;SDS011;12791;50.992;13.788;2023-12-20T01:27:12;0.65;;;0.65;;
24663;SDS011;12791;50.992;13.788;2023-12-20T01:29:39;0.70;;;0.70;;
24663;SDS011;12791;50.992;13.788;2023-12-20T01:32:06;0.65;;;0.63;;
24663;SDS011;12791;50.992;13.788;2023-12-20T01:34:32;1.25;;;0.77;;
24663;SDS011;12791;50.992;13.788;2023-12-20T01:37:00;0.77;;;0.77;;
24663;SDS011;12791;50.992;13.788;2023-12-20T01:39:27;0.60;;;0.60;;
24663;SDS011;12791;50.992;13.788;2023-12-20T01:41:54;0.93;;;0.77;;
24663;SDS011;12791;50.992;13.788;2023-12-20T01:44:20;0.98;;;0.60;;
24663;SDS011;12791;50.992;13.788;2023-12-20T01:46:47;0.63;;;0.63;;
24663;SDS011;12791;50.992;13.788;2023-12-20T01:49:14;0.65;;;0.60;;
24663;SDS011;12791;50.992;13.788;2023-12-20T01:51:41;0.65;;;0.65;;
24663;SDS011;12791;50.992;13.788;2023-12-20T01:54:10;0.50;;;0.50;;
24663;SDS011;12791;50.992;13.788;2023-12-20T01:56:36;0.50;;;0.50;;
24663;SDS011;12791;50.992;13.788;2023-12-20T01:59:04;0.50;;;0.50;;
24663;SDS011;12791;50.992;13.788;2023-12-20T02:01:31;0.60;;;0.60;;
24663;SDS011;12791;50.992;13.788;2023-12-20T02:03:58;0.60;;;0.60;;
24663;SDS011;12791;50.992;13.788;2023-12-20T02:06:26;0.50;;;0.50;;
24663;SDS011;12791;50.992;13.788;2023-12-20T02:08:56;0.45;;;0.45;;
24663;SDS011;12791;50.992;13.788;2023-12-20T02:11:25;0.50;;;0.50;;
24663;SDS011;12791;50.992;13.788;2023-12-20T02:13:51;0.95;;;0.47;;
24663;SDS011;12791;50.992;13.788;2023-12-20T02:16:19;0.50;;;0.50;;
24663;SDS011;12791;50.992;13.788;2023-12-20T02:18:46;0.70;;;0.50;;
24663;SDS011;12791;50.992;13.788;2023-12-20T02:21:13;0.40;;;0.40;;
24663;SDS011;12791;50.992;13.788;2023-12-20T02:23:42;0.40;;;0.40;;
24663;SDS011;12791;50.992;13.788;2023-12-20T02:26:08;0.50;;;0.50;;
24663;SDS011;12791;50.992;13.788;2023-12-20T02:28:36;0.63;;;0.40;;
24663;SDS011;12791;50.992;13.788;2023-12-20T02:31:03;0.30;;;0.30;;
24663;SDS011;12791;50.992;13.788;2023-12-20T02:33:29;0.40;;;0.40;;
24663;SDS011;12791;50.992;13.788;2023-12-20T02:35:56;0.30;;;0.30;;
24663;SDS011;12791;50.992;13.788;2023-12-20T02:38:22;0.63;;;0.30;;
24663;SDS011;12791;50.992;13.788;2023-12-20T02:40:50;0.30;;;0.30;;
24663;SDS011;12791;50.992;13.788;2023-12-20T02:43:17;0.30;;;0.30;;
24663;SDS011;12791;50.992;13.788;2023-12-20T02:45:43;0.30;;;0.30;;
24663;SDS011;12791;50.992;13.788;2023-12-20T02:48:10;0.30;;;0.30;;
24663;SDS011;12791;50.992;13.788;2023-12-20T02:50:37;0.30;;;0.30;;
24663;SDS011;12791;50.992;13.788;2023-12-20T02:53:03;0.30;;;0.30;;
24663;SDS011;12791;50.992;13.788;2023-12-20T02:55:30;0.40;;;0.30;;
24663;SDS011;12791;50.992;13.788;2023-12-20T02:57:58;0.30;;;0.30;;
24663;SDS011;12791;50.992;13.788;2023-12-20T03:00:24;0.30;;;0.30;;
24663;SDS011;12791;50.992;13.788;2023-12-20T03:02:51;0.30;;;0.30;;
24663;SDS011;12791;50.992;13.788;2023-12-20T03:05:18;0.30;;;0.30;;
24663;SDS011;12791;50.992;13.788;2023-12-20T03:07:45;0.20;;;0.20;;
24663;SDS011;12791;50.992;13.788;2023-12-20T03:10:12;0.30;;;0.30;;
24663;SDS011;12791;50.992;13.788;2023-12-20T03:12:39;0.20;;;0.20;;
24663;SDS011;12791;50.992;13.788;2023-12-20T03:15:07;0.20;;;0.20;;
24663;SDS011;12791;50.992;13.788;2023-12-20T03:17:34;0.20;;;0.20;;
24663;SDS011;12791;50.992;13.788;2023-12-20T03:20:01;0.30;;;0.30;;
24663;SDS011;12791;50.992;13.788;2023-12-20T03:22:28;0.30;;;0.30;;
24663;SDS011;12791;50.992;13.788;2023-12-20T03:24:54;0.20;;;0.20;;
24663;SDS011;12791;50.992;13.788;2023-12-20T03:27:21;0.25;;;0.20;;
24663;SDS011;12791;50.992;13.788;2023-12-20T03:29:48;0.25;;;0.25;;
24663;SDS011;12791;50.992;13.788;2023-12-20T03:32:15;0.20;;;0.20;;
24663;SDS011;12791;50.992;13.788;2023-12-20T03:34:42;0.40;;;0.22;;
24663;SDS011;12791;50.992;13.788;2023-12-20T03:37:09;0.20;;;0.20;;
24663;SDS011;12791;50.992;13.788;2023-12-20T03:39:35;0.20;;;0.20;;
24663;SDS011;12791;50.992;13.788;2023-12-20T03:42:02;0.20;;;0.20;;
24663;SDS011;12791;50.992;13.788;2023-12-20T03:44:30;0.20;;;0.20;;
24663;SDS011;12791;50.992;13.788;2023-12-20T03:46:56;0.10;;;0.10;;
24663;SDS011;12791;50.992;13.788;2023-12-20T03:49:24;0.43;;;0.20;;
24663;SDS011;12791;50.992;13.788;2023-12-20T03:51:50;0.20;;;0.20;;
24663;SDS011;12791;50.992;13.788;2023-12-20T03:54:17;0.20;;;0.20;;
24663;SDS011;12791;50.992;13.788;2023-12-20T03:56:44;0.28;;;0.10;;
24663;SDS011;12791;50.992;13.788;2023-12-20T03:59:10;0.20;;;0.20;;
24663;SDS011;12791;50.992;13.788;2023-12-20T04:01:37;0.40;;;0.30;;
24663;SDS011;12791;50.992;13.788;2023-12-20T04:04:03;0.90;;;0.20;;
24663;SDS011;12791;50.992;13.788;2023-12-20T04:06:31;0.20;;;0.20;;
24663;SDS011;12791;50.992;13.788;2023-12-20T04:08:58;0.73;;;0.20;;
24663;SDS011;12791;50.992;13.788;2023-12-20T04:11:24;0.20;;;0.20;;
24663;SDS011;12791;50.992;13.788;2023-12-20T04:13:51;0.15;;;0.15;;
24663;SDS011;12791;50.992;13.788;2023-12-20T04:16:17;0.55;;;0.20;;
24663;SDS011;12791;50.992;13.788;2023-12-20T04:18:44;0.20;;;0.20;;
24663;SDS011;12791;50.992;13.788;2023-12-20T04:21:10;0.40;;;0.25;;
24663;SDS011;12791;50.992;13.788;2023-12-20T04:23:38;0.20;;;0.20;;
24663;SDS011;12791;50.992;13.788;2023-12-20T04:26:05;0.55;;;0.20;;
24663;SDS011;12791;50.992;13.788;2023-12-20T04:28:32;0.20;;;0.20;;
24663;SDS011;12791;50.992;13.788;2023-12-20T04:30:58;0.68;;;0.20;;
24663;SDS011;12791;50.992;13.788;2023-12-20T04:33:25;0.28;;;0.10;;
24663;SDS011;12791;50.992;13.788;2023-12-20T04:35:51;0.15;;;0.15;;
24663;SDS011;12791;50.992;13.788;2023-12-20T04:38:18;0.10;;;0.10;;
24663;SDS011;12791;50.992;13.788;2023-12-20T04:40:46;0.40;;;0.20;;
24663;SDS011;12791;50.992;13.788;2023-12-20T04:43:13;0.17;;;0.17;;
24663;SDS011;12791;50.992;13.788;2023-12-20T04:45:40;0.20;;;0.20;;
24663;SDS011;12791;50.992;13.788;2023-12-20T04:48:06;0.10;;;0.10;;
24663;SDS011;12791;50.992;13.788;2023-12-20T04:50:33;0.20;;;0.20;;
24663;SDS011;12791;50.992;13.788;2023-12-20T04:52:59;0.20;;;0.20;;
24663;SDS011;12791;50.992;13.788;2023-12-20T04:55:26;0.20;;;0.20;;
24663;SDS011;12791;50.992;13.788;2023-12-20T04:57:54;0.20;;;0.20;;
24663;SDS011;12791;50.992;13.788;2023-12-20T05:00:21;0.10;;;0.10;;
24663;SDS011;12791;50.992;13.788;2023-12-20T05:02:48;0.10;;;0.10;;
24663;SDS011;12791;50.992;13.788;2023-12-20T05:05:14;0.20;;;0.20;;
24663;SDS011;12791;50.992;13.788;2023-12-20T05:07:43;0.30;;;0.20;;
24663;SDS011;12791;50.992;13.788;2023-12-20T05:10:09;0.47;;;0.30;;
24663;SDS011;12791;50.992;13.788;2023-12-20T05:12:36;1.30;;;0.60;;
24663;SDS011;12791;50.992;13.788;2023-12-20T05:15:04;0.30;;;0.30;;
24663;SDS011;12791;50.992;13.788;2023-12-20T05:17:32;0.22;;;0.22;;
24663;SDS011;12791;50.992;13.788;2023-12-20T05:19:59;0.77;;;0.30;;
24663;SDS011;12791;50.992;13.788;2023-12-20T05:22:25;1.10;;;0.35;;
24663;SDS011;12791;50.992;13.788;2023-12-20T05:24:52;0.73;;;0.30;;
24663;SDS011;12791;50.992;13.788;2023-12-20T05:27:19;0.30;;;0.30;;
24663;SDS011;12791;50.992;13.788;2023-12-20T05:29:45;0.20;;;0.20;;
24663;SDS011;12791;50.992;13.788;2023-12-20T05:32:13;0.93;;;0.20;;
24663;SDS011;12791;50.992;13.788;2023-12-20T05:34:40;0.20;;;0.20;;
24663;SDS011;12791;50.992;13.788;2023-12-20T05:37:06;0.20;;;0.20;;
24663;SDS011;12791;50.992;13.788;2023-12-20T05:39:33;0.10;;;0.10;;
24663;SDS011;12791;50.992;13.788;2023-12-20T05:41:59;0.10;;;0.10;;
24663;SDS011;12791;50.992;13.788;2023-12-20T05:44:26;0.28;;;0.10;;
24663;SDS011;12791;50.992;13.788;2023-12-20T05:46:53;0.10;;;0.10;;
24663;SDS011;12791;50.992;13.788;2023-12-20T05:49:20;0.20;;;0.15;;
24663;SDS011;12791;50.992;13.788;2023-12-20T05:51:47;0.13;;;0.13;;
24663;SDS011;12791;50.992;13.788;2023-12-20T05:54:15;0.20;;;0.20;;
24663;SDS011;12791;50.992;13.788;2023-12-20T05:56:42;0.20;;;0.10;;
24663;SDS011;12791;50.992;13.788;2023-12-20T05:59:08;0.10;;;0.10;;
24663;SDS011;12791;50.992;13.788;2023-12-20T06:01:35;0.10;;;0.10;;
24663;SDS011;12791;50.992;13.788;2023-12-20T06:04:01;0.17;;;0.17;;
24663;SDS011;12791;50.992;13.788;2023-12-20T06:06:30;0.20;;;0.20;;
24663;SDS011;12791;50.992;13.788;2023-12-20T06:08:57;5.82;;;0.28;;
24663;SDS011;12791;50.992;13.788;2023-12-20T06:11:23;0.22;;;0.20;;
24663;SDS011;12791;50.992;13.788;2023-12-20T06:13:50;0.20;;;0.20;;
24663;SDS011;12791;50.992;13.788;2023-12-20T06:16:18;0.68;;;0.20;;
24663;SDS011;12791;50.992;13.788;2023-12-20T06:18:45;0.20;;;0.20;;
24663;SDS011;12791;50.992;13.788;2023-12-20T06:21:11;0.25;;;0.25;;
24663;SDS011;12791;50.992;13.788;2023-12-20T06:23:40;1.10;;;0.30;;
24663;SDS011;12791;50.992;13.788;2023-12-20T06:26:07;0.30;;;0.30;;
24663;SDS011;12791;50.992;13.788;2023-12-20T06:28:34;0.45;;;0.30;;
24663;SDS011;12791;50.992;13.788;2023-12-20T06:31:00;0.82;;;0.30;;
24663;SDS011;12791;50.992;13.788;2023-12-20T06:33:28;0.30;;;0.30;;
24663;SDS011;12791;50.992;13.788;2023-12-20T06:35:56;0.47;;;0.40;;
24663;SDS011;12791;50.992;13.788;2023-12-20T06:38:22;0.55;;;0.50;;
24663;SDS011;12791;50.992;13.788;2023-12-20T06:40:50;0.47;;;0.45;;
24663;SDS011;12791;50.992;13.788;2023-12-20T06:43:17;0.70;;;0.60;;
24663;SDS011;12791;50.992;13.788;2023-12-20T06:45:43;0.55;;;0.55;;
24663;SDS011;12791;50.992;13.788;2023-12-20T06:48:10;0.68;;;0.60;;
24663;SDS011;12791;50.992;13.788;2023-12-20T06:50:38;0.60;;;0.60;;
24663;SDS011;12791;50.992;13.788;2023-12-20T06:53:05;1.10;;;0.60;;
24663;SDS011;12791;50.992;13.788;2023-12-20T06:55:32;0.60;;;0.60;;
24663;SDS011;12791;50.992;13.788;2023-12-20T06:58:01;0.60;;;0.60;;
24663;SDS011;12791;50.992;13.788;2023-12-20T07:00:28;1.85;;;0.70;;
24663;SDS011;12791;50.992;13.788;2023-12-20T07:02:54;0.60;;;0.60;;
24663;SDS011;12791;50.992;13.788;2023-12-20T07:05:21;0.45;;;0.45;;
24663;SDS011;12791;50.992;13.788;2023-12-20T07:07:48;0.60;;;0.60;;
24663;SDS011;12791;50.992;13.788;2023-12-20T07:10:14;0.63;;;0.63;;
24663;SDS011;12791;50.992;13.788;2023-12-20T07:12:41;0.60;;;0.60;;
24663;SDS011;12791;50.992;13.788;2023-12-20T07:15:09;0.75;;;0.60;;
24663;SDS011;12791;50.992;13.788;2023-12-20T07:17:36;0.80;;;0.80;;
24663;SDS011;12791;50.992;13.788;2023-12-20T07:20:03;0.80;;;0.80;;
24663;SDS011;12791;50.992;13.788;2023-12-20T07:22:34;0.70;;;0.70;;
24663;SDS011;12791;50.992;13.788;2023-12-20T07:25:01;1.13;;;1.00;;
24663;SDS011;12791;50.992;13.788;2023-12-20T07:27:28;2.15;;;1.00;;
24663;SDS011;12791;50.992;13.788;2023-12-20T07:29:55;0.93;;;0.93;;
24663;SDS011;12791;50.992;13.788;2023-12-20T07:32:23;0.98;;;0.98;;
24663;SDS011;12791;50.992;13.788;2023-12-20T07:34:50;1.88;;;0.90;;
24663;SDS011;12791;50.992;13.788;2023-12-20T07:37:16;1.77;;;1.00;;
24663;SDS011;12791;50.992;13.788;2023-12-20T07:39:43;1.45;;;1.35;;
24663;SDS011;12791;50.992;13.788;2023-12-20T07:42:10;1.33;;;1.20;;
24663;SDS011;12791;50.992;13.788;2023-12-20T07:44:36;1.30;;;1.23;;
24663;SDS011;12791;50.992;13.788;2023-12-20T07:47:03;1.33;;;1.33;;
24663;SDS011;12791;50.992;13.788;2023-12-20T07:49:31;2.40;;;1.55;;
24663;SDS011;12791;50.992;13.788;2023-12-20T07:51:57;1.75;;;1.20;;
24663;SDS011;12791;50.992;13.788;2023-12-20T07:54:24;2.55;;;1.30;;
24663;SDS011;12791;50.992;13.788;2023-12-20T07:56:50;3.22;;;1.50;;
24663;SDS011;12791;50.992;13.788;2023-12-20T07:59:17;1.50;;;1.40;;
24663;SDS011;12791;50.992;13.788;2023-12-20T08:01:44;1.50;;;1.40;;
24663;SDS011;12791;50.992;13.788;2023-12-20T08:04:10;1.25;;;1.13;;
24663;SDS011;12791;50.992;13.788;2023-12-20T08:06:38;2.33;;;1.60;;
24663;SDS011;12791;50.992;13.788;2023-12-20T08:09:05;2.20;;;0.95;;
24663;SDS011;12791;50.992;13.788;2023-12-20T08:11:31;1.27;;;0.93;;
24663;SDS011;12791;50.992;13.788;2023-12-20T08:13:58;1.75;;;1.10;;
24663;SDS011;12791;50.992;13.788;2023-12-20T08:16:25;2.97;;;0.95;;
24663;SDS011;12791;50.992;13.788;2023-12-20T08:18:52;0.70;;;0.70;;
24663;SDS011;12791;50.992;13.788;2023-12-20T08:21:19;1.58;;;0.85;;
24663;SDS011;12791;50.992;13.788;2023-12-20T08:23:48;1.20;;;0.90;;
24663;SDS011;12791;50.992;13.788;2023-12-20T08:26:18;1.30;;;0.98;;
24663;SDS011;12791;50.992;13.788;2023-12-20T08:28:46;1.77;;;1.00;;
24663;SDS011;12791;50.992;13.788;2023-12-20T08:31:13;1.85;;;0.90;;
24663;SDS011;12791;50.992;13.788;2023-12-20T08:33:40;2.17;;;1.00;;
24663;SDS011;12791;50.992;13.788;2023-12-20T08:36:07;3.25;;;1.17;;
24663;SDS011;12791;50.992;13.788;2023-12-20T08:38:34;1.23;;;0.70;;
24663;SDS011;12791;50.992;13.788;2023-12-20T08:41:02;1.30;;;0.88;;
24663;SDS011;12791;50.992;13.788;2023-12-20T08:43:30;1.20;;;0.73;;
24663;SDS011;12791;50.992;13.788;2023-12-20T08:45:56;1.75;;;0.80;;
24663;SDS011;12791;50.992;13.788;2023-12-20T08:48:23;4.15;;;0.90;;
24663;SDS011;12791;50.992;13.788;2023-12-20T08:50:49;2.35;;;0.90;;
24663;SDS011;12791;50.992;13.788;2023-12-20T08:53:17;3.03;;;0.80;;
24663;SDS011;12791;50.992;13.788;2023-12-20T08:55:43;1.15;;;0.60;;
24663;SDS011;12791;50.992;13.788;2023-12-20T08:58:12;2.83;;;0.77;;
24663;SDS011;12791;50.992;13.788;2023-12-20T09:00:38;2.38;;;0.52;;
24663;SDS011;12791;50.992;13.788;2023-12-20T09:03:05;2.25;;;0.80;;
24663;SDS011;12791;50.992;13.788;2023-12-20T09:05:32;1.30;;;0.60;;
24663;SDS011;12791;50.992;13.788;2023-12-20T09:07:59;1.55;;;0.65;;
24663;SDS011;12791;50.992;13.788;2023-12-20T09:10:25;1.50;;;0.50;;
24663;SDS011;12791;50.992;13.788;2023-12-20T09:12:52;1.63;;;0.60;;
24663;SDS011;12791;50.992;13.788;2023-12-20T09:15:22;3.85;;;0.70;;
24663;SDS011;12791;50.992;13.788;2023-12-20T09:17:49;3.33;;;0.68;;
24663;SDS011;12791;50.992;13.788;2023-12-20T09:20:15;1.75;;;0.85;;
24663;SDS011;12791;50.992;13.788;2023-12-20T09:22:42;3.67;;;0.68;;
24663;SDS011;12791;50.992;13.788;2023-12-20T09:25:09;3.67;;;0.70;;
24663;SDS011;12791;50.992;13.788;2023-12-20T09:27:37;2.13;;;0.70;;
24663;SDS011;12791;50.992;13.788;2023-12-20T09:30:04;3.70;;;0.60;;
24663;SDS011;12791;50.992;13.788;2023-12-20T09:32:34;1.85;;;0.70;;
24663;SDS011;12791;50.992;13.788;2023-12-20T09:35:01;3.10;;;0.98;;
24663;SDS011;12791;50.992;13.788;2023-12-20T09:37:30;2.22;;;0.93;;
24663;SDS011;12791;50.992;13.788;2023-12-20T09:39:57;2.35;;;0.93;;
24663;SDS011;12791;50.992;13.788;2023-12-20T09:42:25;1.98;;;0.73;;
24663;SDS011;12791;50.992;13.788;2023-12-20T09:44:59;4.45;;;0.70;;
24663;SDS011;12791;50.992;13.788;2023-12-20T09:47:28;3.80;;;1.00;;
24663;SDS011;12791;50.992;13.788;2023-12-20T09:49:57;2.38;;;0.77;;
24663;SDS011;12791;50.992;13.788;2023-12-20T09:52:23;0.85;;;0.50;;
24663;SDS011;12791;50.992;13.788;2023-12-20T09:54:50;2.65;;;0.75;;
24663;SDS011;12791;50.992;13.788;2023-12-20T09:57:20;1.58;;;0.70;;
24663;SDS011;12791;50.992;13.788;2023-12-20T09:59:46;1.00;;;0.70;;
24663;SDS011;12791;50.992;13.788;2023-12-20T10:02:13;2.08;;;0.60;;
24663;SDS011;12791;50.992;13.788;2023-12-20T10:04:41;0.93;;;0.50;;
24663;SDS011;12791;50.992;13.788;2023-12-20T10:07:13;2.67;;;0.60;;
24663;SDS011;12791;50.992;13.788;2023-12-20T10:09:41;4.57;;;0.85;;
24663;SDS011;12791;50.992;13.788;2023-12-20T10:12:08;3.13;;;0.60;;
24663;SDS011;12791;50.992;13.788;2023-12-20T10:14:35;2.05;;;0.70;;
24663;SDS011;12791;50.992;13.788;2023-12-20T10:17:02;1.75;;;0.63;;
24663;SDS011;12791;50.992;13.788;2023-12-20T10:19:29;2.47;;;0.70;;
24663;SDS011;12791;50.992;13.788;2023-12-20T10:21:56;2.58;;;0.70;;
24663;SDS011;12791;50.992;13.788;2023-12-20T10:24:25;3.88;;;0.80;;
24663;SDS011;12791;50.992;13.788;2023-12-20T10:27:00;3.38;;;0.68;;
24663;SDS011;12791;50.992;13.788;2023-12-20T10:29:28;1.75;;;0.70;;
24663;SDS011;12791;50.992;13.788;2023-12-20T10:31:58;3.50;;;0.60;;
24663;SDS011;12791;50.992;13.788;2023-12-20T10:34:24;3.28;;;0.70;;
24663;SDS011;12791;50.992;13.788;2023-12-20T10:36:51;2.17;;;0.50;;
24663;SDS011;12791;50.992;13.788;2023-12-20T10:39:18;2.20;;;0.80;;
24663;SDS011;12791;50.992;13.788;2023-12-20T10:41:46;1.55;;;0.90;;
24663;SDS011;12791;50.992;13.788;2023-12-20T10:44:13;3.20;;;0.98;;
24663;SDS011;12791;50.992;13.788;2023-12-20T10:46:41;2.50;;;0.85;;
24663;SDS011;12791;50.992;13.788;2023-12-20T10:49:14;2.55;;;0.68;;
24663;SDS011;12791;50.992;13.788;2023-12-20T10:51:43;2.70;;;0.93;;
24663;SDS011;12791;50.992;13.788;2023-12-20T10:54:11;3.60;;;0.90;;
24663;SDS011;12791;50.992;13.788;2023-12-20T10:56:38;5.25;;;1.00;;
24663;SDS011;12791;50.992;13.788;2023-12-20T10:59:06;2.60;;;0.70;;
24663;SDS011;12791;50.992;13.788;2023-12-20T11:01:36;3.40;;;0.82;;
24663;SDS011;12791;50.992;13.788;2023-12-20T11:04:04;1.58;;;0.63;;
24663;SDS011;12791;50.992;13.788;2023-12-20T11:06:36;1.77;;;0.70;;
24663;SDS011;12791;50.992;13.788;2023-12-20T11:09:13;2.30;;;0.70;;
24663;SDS011;12791;50.992;13.788;2023-12-20T11:11:51;1.40;;;0.82;;
24663;SDS011;12791;50.992;13.788;2023-12-20T11:14:27;2.47;;;0.90;;
24663;SDS011;12791;50.992;13.788;2023-12-20T11:17:06;1.85;;;0.68;;
24663;SDS011;12791;50.992;13.788;2023-12-20T11:19:35;2.13;;;0.85;;
24663;SDS011;12791;50.992;13.788;2023-12-20T11:22:03;1.83;;;0.73;;
24663;SDS011;12791;50.992;13.788;2023-12-20T11:24:30;0.90;;;0.68;;
24663;SDS011;12791;50.992;13.788;2023-12-20T11:26:57;2.90;;;0.80;;
24663;SDS011;12791;50.992;13.788;2023-12-20T11:29:30;3.95;;;0.98;;
24663;SDS011;12791;50.992;13.788;2023-12-20T11:31:58;3.58;;;1.02;;
24663;SDS011;12791;50.992;13.788;2023-12-20T11:34:26;3.53;;;0.88;;
24663;SDS011;12791;50.992;13.788;2023-12-20T11:36:57;1.65;;;0.88;;
24663;SDS011;12791;50.992;13.788;2023-12-20T11:39:25;4.25;;;0.90;;
24663;SDS011;12791;50.992;13.788;2023-12-20T11:41:53;2.38;;;0.90;;
24663;SDS011;12791;50.992;13.788;2023-12-20T11:44:21;0.85;;;0.70;;
24663;SDS011;12791;50.992;13.788;2023-12-20T11:46:49;2.15;;;1.02;;
24663;SDS011;12791;50.992;13.788;2023-12-20T11:49:16;3.13;;;1.00;;
24663;SDS011;12791;50.992;13.788;2023-12-20T11:51:42;3.60;;;1.02;;
24663;SDS011;12791;50.992;13.788;2023-12-20T11:54:09;2.42;;;0.90;;
24663;SDS011;12791;50.992;13.788;2023-12-20T11:56:36;1.65;;;0.98;;
24663;SDS011;12791;50.992;13.788;2023-12-20T11:59:04;3.00;;;0.82;;
24663;SDS011;12791;50.992;13.788;2023-12-20T12:01:31;2.88;;;1.00;;
24663;SDS011;12791;50.992;13.788;2023-12-20T12:04:05;3.10;;;1.10;;
24663;SDS011;12791;50.992;13.788;2023-12-20T12:06:32;0.95;;;0.85;;
24663;SDS011;12791;50.992;13.788;2023-12-20T12:08:59;1.60;;;0.80;;
24663;SDS011;12791;50.992;13.788;2023-12-20T12:11:26;3.25;;;0.95;;
24663;SDS011;12791;50.992;13.788;2023-12-20T12:13:52;1.70;;;0.80;;
24663;SDS011;12791;50.992;13.788;2023-12-20T12:16:19;1.92;;;0.90;;
24663;SDS011;12791;50.992;13.788;2023-12-20T12:18:46;4.13;;;0.80;;
24663;SDS011;12791;50.992;13.788;2023-12-20T12:21:22;3.15;;;0.80;;
24663;SDS011;12791;50.992;13.788;2023-12-20T12:23:48;1.67;;;0.80;;
24663;SDS011;12791;50.992;13.788;2023-12-20T12:26:15;4.47;;;1.00;;
24663;SDS011;12791;50.992;13.788;2023-12-20T12:28:42;1.50;;;0.98;;
24663;SDS011;12791;50.992;13.788;2023-12-20T12:31:09;2.67;;;0.73;;
24663;SDS011;12791;50.992;13.788;2023-12-20T12:33:40;2.13;;;0.98;;
24663;SDS011;12791;50.992;13.788;2023-12-20T12:36:08;2.47;;;0.70;;
24663;SDS011;12791;50.992;13.788;2023-12-20T12:38:37;2.13;;;0.80;;
24663;SDS011;12791;50.992;13.788;2023-12-20T12:41:04;3.08;;;0.90;;
24663;SDS011;12791;50.992;13.788;2023-12-20T12:43:32;3.13;;;1.33;;
24663;SDS011;12791;50.992;13.788;2023-12-20T12:45:58;4.28;;;1.20;;
24663;SDS011;12791;50.992;13.788;2023-12-20T12:48:25;2.78;;;0.90;;
24663;SDS011;12791;50.992;13.788;2023-12-20T12:50:53;2.90;;;0.80;;
24663;SDS011;12791;50.992;13.788;2023-12-20T12:53:22;2.95;;;0.88;;
24663;SDS011;12791;50.992;13.788;2023-12-20T12:55:50;2.63;;;0.80;;
24663;SDS011;12791;50.992;13.788;2023-12-20T12:58:16;3.85;;;1.08;;
24663;SDS011;12791;50.992;13.788;2023-12-20T13:00:43;2.00;;;0.90;;
24663;SDS011;12791;50.992;13.788;2023-12-20T13:03:10;3.20;;;0.95;;
24663;SDS011;12791;50.992;13.788;2023-12-20T13:05:36;2.83;;;1.00;;
24663;SDS011;12791;50.992;13.788;2023-12-20T13:08:03;2.72;;;0.80;;
24663;SDS011;12791;50.992;13.788;2023-12-20T13:10:31;3.53;;;1.08;;
24663;SDS011;12791;50.992;13.788;2023-12-20T13:12:59;1.23;;;0.80;;
24663;SDS011;12791;50.992;13.788;2023-12-20T13:15:26;3.83;;;1.00;;
24663;SDS011;12791;50.992;13.788;2023-12-20T13:17:52;4.65;;;0.73;;
24663;SDS011;12791;50.992;13.788;2023-12-20T13:20:19;3.67;;;1.00;;
24663;SDS011;12791;50.992;13.788;2023-12-20T13:22:45;3.08;;;0.70;;
24663;SDS011;12791;50.992;13.788;2023-12-20T13:25:12;1.73;;;0.80;;
24663;SDS011;12791;50.992;13.788;2023-12-20T13:27:39;3.42;;;0.93;;
24663;SDS011;12791;50.992;13.788;2023-12-20T13:30:10;3.35;;;1.02;;
24663;SDS011;12791;50.992;13.788;2023-12-20T13:32:37;3.33;;;0.80;;
24663;SDS011;12791;50.992;13.788;2023-12-20T13:35:03;3.60;;;0.93;;
24663;SDS011;12791;50.992;13.788;2023-12-20T13:37:31;4.90;;;1.63;;
24663;SDS011;12791;50.992;13.788;2023-12-20T13:39:57;2.97;;;0.77;;
24663;SDS011;12791;50.992;13.788;2023-12-20T13:42:24;5.47;;;1.13;;
24663;SDS011;12791;50.992;13.788;2023-12-20T13:44:52;5.15;;;1.00;;
24663;SDS011;12791;50.992;13.788;2023-12-20T13:47:20;2.25;;;0.88;;
24663;SDS011;12791;50.992;13.788;2023-12-20T13:49:46;2.33;;;0.90;;
24663;SDS011;12791;50.992;13.788;2023-12-20T13:52:13;5.50;;;0.90;;
24663;SDS011;12791;50.992;13.788;2023-12-20T13:54:39;1.83;;;0.90;;
24663;SDS011;12791;50.992;13.788;2023-12-20T13:57:06;3.90;;;1.00;;
24663;SDS011;12791;50.992;13.788;2023-12-20T13:59:33;2.00;;;1.00;;
24663;SDS011;12791;50.992;13.788;2023-12-20T14:02:00;3.08;;;1.23;;
24663;SDS011;12791;50.992;13.788;2023-12-20T14:04:29;4.60;;;0.98;;
24663;SDS011;12791;50.992;13.788;2023-12-20T14:06:56;1.60;;;0.82;;
24663;SDS011;12791;50.992;13.788;2023-12-20T14:09:23;1.38;;;0.90;;
24663;SDS011;12791;50.992;13.788;2023-12-20T14:11:50;4.18;;;0.90;;
24663;SDS011;12791;50.992;13.788;2023-12-20T14:14:16;1.33;;;0.70;;
24663;SDS011;12791;50.992;13.788;2023-12-20T14:16:44;2.58;;;1.00;;
24663;SDS011;12791;50.992;13.788;2023-12-20T14:19:10;4.63;;;1.10;;
24663;SDS011;12791;50.992;13.788;2023-12-20T14:21:38;2.17;;;0.80;;
24663;SDS011;12791;50.992;13.788;2023-12-20T14:24:05;4.03;;;1.00;;
24663;SDS011;12791;50.992;13.788;2023-12-20T14:26:32;1.23;;;0.80;;
24663;SDS011;12791;50.992;13.788;2023-12-20T14:28:58;1.13;;;0.73;;
24663;SDS011;12791;50.992;13.788;2023-12-20T14:31:25;2.35;;;0.90;;
24663;SDS011;12791;50.992;13.788;2023-12-20T14:33:52;2.13;;;0.93;;